Time;durP1;ratioP1;P1;durP2;ratioP2;P2;SDS_P1;SDS_P2;PMS_P1;PMS_P2;Temp;Humidity;BMP_temperature;BMP_pressure;BME280_temperature;BME280_humidity;BME280_pressure;Samples;Min_cycle;Max_cycle;Signal;HPM_P1;HPM_P2
2021/09/09 00:01:42;;;;;;;;;13.33;13.33;22.80;34.00;;;;;;5077714;28;8785;-63
2021/09/09 00:04:08;;;;;;;;;12.67;12.67;22.90;34.00;;;;;;5077602;28;8797;-63
2021/09/09 00:06:34;;;;;;;;;13.33;13.33;22.90;34.00;;;;;;5077443;28;8769;-63
2021/09/09 00:08:59;;;;;;;;;15.00;15.00;22.90;34.20;;;;;;5077788;28;8773;-63
2021/09/09 00:11:26;;;;;;;;;14.67;14.67;23.00;34.10;;;;;;5077726;28;8868;-63
2021/09/09 00:13:51;;;;;;;;;12.33;12.33;23.00;34.10;;;;;;5077708;28;8766;-63
2021/09/09 00:16:18;;;;;;;;;12.33;12.33;22.90;34.30;;;;;;5077696;28;8762;-63
2021/09/09 00:18:44;;;;;;;;;11.33;11.33;23.00;34.60;;;;;;5077633;28;8749;-63
2021/09/09 00:21:10;;;;;;;;;16.00;15.00;23.00;34.90;;;;;;5077290;28;8888;-63
2021/09/09 00:23:36;;;;;;;;;14.67;14.67;22.90;35.00;;;;;;5077303;28;8770;-63
2021/09/09 00:26:04;;;;;;;;;14.00;13.33;23.10;35.20;;;;;;5077591;28;8808;-63
2021/09/09 00:28:30;;;;;;;;;15.33;15.33;23.10;35.00;;;;;;5077184;28;8801;-63
2021/09/09 00:30:56;;;;;;;;;14.67;14.67;23.10;34.90;;;;;;5077197;28;8766;-63
2021/09/09 00:33:22;;;;;;;;;16.33;15.33;23.10;35.00;;;;;;5077154;28;8793;-63
2021/09/09 00:35:47;;;;;;;;;16.00;16.00;23.10;35.10;;;;;;5076746;28;8777;-63
2021/09/09 00:38:13;;;;;;;;;17.67;17.67;23.10;35.10;;;;;;5076279;28;8762;-63
2021/09/09 00:40:39;;;;;;;;;16.33;15.33;23.10;34.90;;;;;;5077185;28;8789;-63
2021/09/09 00:43:05;;;;;;;;;17.33;17.33;22.90;35.30;;;;;;5076865;28;8770;-63
2021/09/09 00:45:31;;;;;;;;;14.67;14.67;22.90;36.10;;;;;;5077137;28;8746;-64
2021/09/09 00:47:57;;;;;;;;;16.33;16.33;22.80;36.70;;;;;;5077030;28;9448;-63
2021/09/09 00:50:23;;;;;;;;;15.00;15.00;22.90;37.60;;;;;;5076807;28;8761;-63
2021/09/09 00:52:50;;;;;;;;;16.00;16.00;22.80;38.00;;;;;;5076832;28;8798;-63
2021/09/09 00:55:17;;;;;;;;;11.33;11.33;22.80;38.00;;;;;;5076495;28;8818;-63
2021/09/09 00:57:44;;;;;;;;;13.00;13.00;22.80;38.00;;;;;;5076712;28;9426;-63
2021/09/09 01:00:12;;;;;;;;;12.67;12.67;22.70;37.90;;;;;;5076644;28;8793;-63
2021/09/09 01:02:38;;;;;;;;;17.00;17.00;22.70;37.90;;;;;;5076940;28;8766;-63
2021/09/09 01:05:06;;;;;;;;;13.33;13.33;22.70;38.00;;;;;;5076800;28;8774;-63
2021/09/09 01:07:31;;;;;;;;;17.00;15.00;22.60;38.10;;;;;;5076390;28;8808;-64
2021/09/09 01:09:58;;;;;;;;;14.00;14.00;22.50;38.20;;;;;;5076428;28;9384;-64
2021/09/09 01:12:24;;;;;;;;;14.33;14.33;22.50;38.40;;;;;;5076710;28;8826;-63
2021/09/09 01:14:50;;;;;;;;;14.33;14.33;22.40;38.60;;;;;;5076670;28;8876;-63
2021/09/09 01:17:16;;;;;;;;;14.67;14.67;22.40;38.90;;;;;;5076408;28;8845;-63
2021/09/09 01:19:42;;;;;;;;;14.00;14.00;22.40;39.10;;;;;;5076490;28;8754;-63
2021/09/09 01:22:08;;;;;;;;;15.00;15.00;22.40;39.50;;;;;;5076238;28;8774;-63
2021/09/09 01:24:34;;;;;;;;;11.33;11.33;22.40;39.60;;;;;;5076035;28;8766;-63
2021/09/09 01:27:06;;;;;;;;;13.33;13.33;22.50;39.40;;;;;;5076110;28;8782;-63
2021/09/09 01:29:37;;;;;;;;;13.00;13.00;22.40;39.40;;;;;;5076024;28;8772;-63
2021/09/09 01:32:05;;;;;;;;;12.33;12.33;22.40;39.50;;;;;;5075980;28;8792;-63
2021/09/09 01:34:31;;;;;;;;;11.33;11.33;22.50;39.20;;;;;;5075803;28;8774;-64
2021/09/09 01:36:57;;;;;;;;;12.00;12.00;22.40;38.90;;;;;;5075898;28;8770;-62
2021/09/09 01:39:23;;;;;;;;;12.00;12.00;22.30;39.00;;;;;;5075852;28;8865;-63
2021/09/09 01:41:53;;;;;;;;;13.67;13.67;22.40;39.40;;;;;;5075875;28;8842;-62
2021/09/09 01:44:20;;;;;;;;;13.33;13.33;22.30;39.40;;;;;;5075742;28;8768;-62
2021/09/09 01:46:46;;;;;;;;;14.00;14.00;22.30;39.00;;;;;;5075918;28;9439;-62
2021/09/09 01:49:13;;;;;;;;;15.67;14.33;22.30;38.40;;;;;;5075684;28;8745;-64
2021/09/09 01:51:38;;;;;;;;;11.33;11.33;22.30;38.00;;;;;;5075861;28;9454;-65
2021/09/09 01:54:04;;;;;;;;;13.00;13.00;22.30;37.60;;;;;;5075614;28;8811;-65
2021/09/09 01:56:31;;;;;;;;;13.00;13.00;22.30;37.40;;;;;;5075421;28;8932;-63
2021/09/09 01:58:56;;;;;;;;;14.00;14.00;22.30;37.20;;;;;;5075478;28;8780;-64
2021/09/09 02:01:23;;;;;;;;;15.33;15.33;22.30;37.00;;;;;;5075442;28;8782;-62
2021/09/09 02:03:50;;;;;;;;;12.67;12.67;22.30;36.90;;;;;;5075648;28;8876;-65
2021/09/09 02:06:16;;;;;;;;;16.00;16.00;22.20;36.90;;;;;;5075337;28;8881;-62
2021/09/09 02:08:42;;;;;;;;;14.33;14.33;22.20;36.80;;;;;;5075174;28;8789;-62
2021/09/09 02:11:08;;;;;;;;;9.00;9.00;22.20;36.80;;;;;;5075277;28;8826;-62
2021/09/09 02:13:35;;;;;;;;;12.33;12.33;22.20;36.30;;;;;;5075407;28;8778;-62
2021/09/09 02:16:01;;;;;;;;;12.00;12.00;22.10;36.30;;;;;;5075361;28;8766;-62
2021/09/09 02:18:27;;;;;;;;;15.00;15.00;22.10;36.30;;;;;;5075103;28;8769;-64
2021/09/09 02:20:53;;;;;;;;;18.00;18.00;22.00;36.50;;;;;;5075265;28;9415;-62
2021/09/09 02:23:19;;;;;;;;;18.00;18.00;22.00;36.70;;;;;;5074895;28;8773;-62
2021/09/09 02:25:44;;;;;;;;;14.00;14.00;21.90;36.80;;;;;;5075167;28;9217;-62
2021/09/09 02:28:10;;;;;;;;;17.33;17.33;22.00;37.00;;;;;;5074820;28;8812;-62
2021/09/09 02:30:36;;;;;;;;;17.00;16.67;22.00;37.00;;;;;;5075216;28;8793;-62
2021/09/09 02:33:02;;;;;;;;;18.00;18.00;21.90;37.00;;;;;;5075076;28;8745;-62
2021/09/09 02:35:28;;;;;;;;;15.33;15.33;21.90;37.10;;;;;;5075165;28;9418;-62
2021/09/09 02:37:54;;;;;;;;;17.33;17.33;21.90;37.20;;;;;;5074996;28;8765;-62
2021/09/09 02:40:20;;;;;;;;;15.33;15.33;21.80;37.30;;;;;;5074696;28;8769;-62
2021/09/09 02:42:46;;;;;;;;;15.00;15.00;21.80;37.40;;;;;;5074991;28;8758;-62
2021/09/09 02:45:12;;;;;;;;;17.00;17.00;21.80;37.40;;;;;;5074940;28;8781;-62
2021/09/09 02:47:38;;;;;;;;;15.00;15.00;21.80;37.50;;;;;;5074798;28;8786;-62
2021/09/09 02:50:05;;;;;;;;;17.00;17.00;21.70;37.80;;;;;;5074881;28;8749;-62
2021/09/09 02:52:31;;;;;;;;;14.67;14.00;21.70;38.40;;;;;;5074554;28;8766;-62
2021/09/09 02:54:57;;;;;;;;;21.00;21.00;21.60;38.90;;;;;;5074269;28;8817;-62
2021/09/09 02:57:23;;;;;;;;;21.67;21.67;21.70;39.30;;;;;;5074476;28;8886;-62
2021/09/09 02:59:49;;;;;;;;;21.00;21.00;21.60;39.30;;;;;;5074133;28;8781;-62
2021/09/09 03:02:15;;;;;;;;;20.67;20.67;21.60;39.40;;;;;;5074712;28;8854;-62
2021/09/09 03:04:40;;;;;;;;;19.33;19.33;21.60;39.70;;;;;;5074672;28;9443;-62
2021/09/09 03:07:06;;;;;;;;;18.00;18.00;21.60;39.60;;;;;;5074288;28;8785;-62
2021/09/09 03:09:32;;;;;;;;;19.33;19.33;21.60;39.30;;;;;;5074362;28;8766;-62
2021/09/09 03:11:58;;;;;;;;;15.67;15.67;21.60;39.70;;;;;;5074866;28;8769;-62
2021/09/09 03:14:24;;;;;;;;;16.00;16.00;21.60;39.70;;;;;;5074588;28;8789;-62
2021/09/09 03:16:50;;;;;;;;;16.33;16.33;21.40;39.80;;;;;;5074567;28;8780;-62
2021/09/09 03:19:15;;;;;;;;;19.00;19.00;21.30;40.20;;;;;;5073720;28;8762;-62
2021/09/09 03:21:41;;;;;;;;;12.00;12.00;21.30;40.30;;;;;;5094322;28;8770;-62
2021/09/09 03:24:07;;;;;;;;;17.00;17.00;21.20;40.20;;;;;;5094451;28;8766;-62
2021/09/09 03:26:33;;;;;;;;;17.00;17.00;21.10;40.30;;;;;;5094813;28;8824;-62
2021/09/09 03:28:59;;;;;;;;;15.33;15.33;21.10;40.20;;;;;;5094357;28;9400;-64
2021/09/09 03:31:24;;;;;;;;;13.67;13.67;21.10;40.00;;;;;;5094700;28;8774;-62
2021/09/09 03:33:50;;;;;;;;;16.67;16.67;21.10;39.90;;;;;;5094599;28;8765;-64
2021/09/09 03:36:16;;;;;;;;;15.67;15.67;21.10;40.00;;;;;;5094374;28;8766;-64
2021/09/09 03:38:42;;;;;;;;;15.33;15.33;21.20;39.70;;;;;;5090865;28;8828;-64
2021/09/09 03:41:08;;;;;;;;;16.33;16.33;21.20;39.80;;;;;;5084885;28;8765;-64
2021/09/09 03:43:34;;;;;;;;;15.00;15.00;21.30;39.80;;;;;;5094276;28;8803;-64
2021/09/09 03:46:00;;;;;;;;;15.33;15.33;21.30;39.80;;;;;;5075015;28;8830;-62
2021/09/09 03:48:26;;;;;;;;;15.33;15.33;21.30;39.60;;;;;;5074170;28;8813;-62
2021/09/09 03:50:52;;;;;;;;;17.33;17.33;21.30;39.60;;;;;;5074229;28;9443;-63
2021/09/09 03:53:18;;;;;;;;;17.00;17.00;21.30;39.50;;;;;;5074311;28;8758;-64
2021/09/09 03:55:44;;;;;;;;;13.33;13.33;21.30;39.60;;;;;;5073785;28;9466;-64
2021/09/09 03:58:10;;;;;;;;;15.00;15.00;21.30;39.60;;;;;;5073912;28;8765;-64
2021/09/09 04:00:35;;;;;;;;;16.00;16.00;21.30;39.50;;;;;;5073870;28;8824;-62
2021/09/09 04:03:03;;;;;;;;;19.67;19.67;21.10;39.60;;;;;;5073775;28;8881;-62
2021/09/09 04:05:29;;;;;;;;;15.67;15.67;21.10;39.90;;;;;;5073905;28;8843;-62
2021/09/09 04:07:55;;;;;;;;;16.67;16.67;21.10;39.90;;;;;;5073962;28;8798;-62
2021/09/09 04:10:21;;;;;;;;;18.33;18.33;21.10;40.10;;;;;;5073773;28;9445;-64
2021/09/09 04:12:47;;;;;;;;;16.00;16.00;21.10;39.90;;;;;;5077519;28;8791;-64
2021/09/09 04:15:13;;;;;;;;;20.67;20.67;21.20;40.00;;;;;;5077495;28;8742;-64
2021/09/09 04:17:39;;;;;;;;;19.00;19.00;21.20;40.10;;;;;;5077429;28;8778;-62
2021/09/09 04:20:05;;;;;;;;;18.00;18.00;21.30;40.10;;;;;;5077295;28;8778;-62
2021/09/09 04:22:31;;;;;;;;;24.00;23.00;21.30;40.10;;;;;;5077297;28;8765;-64
2021/09/09 04:24:58;;;;;;;;;21.33;20.00;21.30;40.10;;;;;;5086523;28;8799;-64
2021/09/09 04:27:24;;;;;;;;;20.00;19.33;21.20;40.00;;;;;;5090065;28;8803;-62
2021/09/09 04:29:51;;;;;;;;;22.33;22.33;21.10;40.20;;;;;;5093592;28;9427;-62
2021/09/09 04:32:18;;;;;;;;;18.33;18.33;21.00;40.30;;;;;;5077008;28;8765;-64
2021/09/09 04:34:44;;;;;;;;;17.33;17.33;21.00;40.60;;;;;;5077225;28;8789;-64
2021/09/09 04:37:09;;;;;;;;;19.67;19.67;21.00;40.90;;;;;;5077924;28;9420;-64
2021/09/09 04:39:35;;;;;;;;;17.00;17.00;21.00;41.00;;;;;;5089087;28;8954;-64
2021/09/09 04:42:01;;;;;;;;;21.33;21.33;21.10;40.90;;;;;;5089149;28;8770;-63
2021/09/09 04:44:27;;;;;;;;;19.33;19.33;21.20;40.90;;;;;;5085165;28;8805;-62
2021/09/09 04:46:53;;;;;;;;;18.67;18.33;21.20;40.70;;;;;;5090415;28;8782;-63
2021/09/09 04:49:19;;;;;;;;;19.00;19.00;21.30;40.90;;;;;;5081612;28;8855;-64
2021/09/09 04:51:45;;;;;;;;;19.00;19.00;21.20;40.80;;;;;;5076812;28;8765;-62
2021/09/09 04:54:10;;;;;;;;;19.00;19.00;21.20;40.90;;;;;;5077098;28;8762;-62
2021/09/09 04:56:36;;;;;;;;;18.67;18.33;21.10;41.00;;;;;;5076500;28;8972;-62
2021/09/09 04:59:02;;;;;;;;;22.00;22.00;21.00;41.20;;;;;;5076293;28;8812;-66
2021/09/09 05:01:28;;;;;;;;;18.67;18.67;21.00;41.50;;;;;;5088877;28;8775;-62
2021/09/09 05:03:54;;;;;;;;;23.67;23.67;20.80;41.60;;;;;;5076482;28;8835;-62
2021/09/09 05:06:20;;;;;;;;;22.33;22.33;20.70;41.80;;;;;;5079308;28;8762;-63
2021/09/09 05:08:46;;;;;;;;;26.33;26.33;20.70;42.10;;;;;;5075535;28;8794;-63
2021/09/09 05:11:12;;;;;;;;;25.67;25.67;20.80;42.20;;;;;;5075597;28;8773;-63
2021/09/09 05:13:38;;;;;;;;;20.67;20.67;20.90;42.20;;;;;;5076292;28;8770;-63
2021/09/09 05:16:06;;;;;;;;;25.33;25.33;20.90;42.30;;;;;;5076436;28;8867;-61
2021/09/09 05:18:32;;;;;;;;;30.00;29.00;21.00;42.30;;;;;;5076130;28;8835;-61
2021/09/09 05:20:57;;;;;;;;;48.25;42.00;21.10;42.10;;;;;;5076424;28;8849;-61
2021/09/09 05:23:23;;;;;;;;;37.00;34.25;21.00;41.80;;;;;;5075645;28;8963;-61
2021/09/09 05:25:49;;;;;;;;;38.00;34.33;20.90;42.20;;;;;;5075982;28;8827;-61
2021/09/09 05:28:15;;;;;;;;;28.00;28.00;20.80;42.50;;;;;;5076189;28;8881;-61
2021/09/09 05:30:41;;;;;;;;;28.00;28.00;20.80;42.50;;;;;;5075989;28;8765;-63
2021/09/09 05:33:06;;;;;;;;;8.67;8.67;20.80;42.50;;;;;;5076064;28;8760;-63
2021/09/09 05:35:32;;;;;;;;;23.33;23.33;20.90;42.50;;;;;;5076225;28;8754;-63
2021/09/09 05:37:58;;;;;;;;;25.00;25.00;20.80;42.70;;;;;;5076313;28;9516;-61
2021/09/09 05:40:24;;;;;;;;;22.33;22.33;20.80;42.80;;;;;;5076069;28;8774;-63
2021/09/09 05:42:49;;;;;;;;;19.67;19.67;20.80;42.90;;;;;;5075887;28;9415;-61
2021/09/09 05:45:15;;;;;;;;;24.67;24.67;20.80;42.90;;;;;;5075770;28;8863;-63
2021/09/09 05:47:41;;;;;;;;;23.33;23.33;20.70;42.90;;;;;;5075660;28;8798;-61
2021/09/09 05:50:07;;;;;;;;;25.33;25.33;20.80;43.30;;;;;;5075645;28;8754;-62
2021/09/09 05:52:33;;;;;;;;;30.33;30.33;21.00;43.10;;;;;;5075628;28;8754;-61
2021/09/09 05:54:59;;;;;;;;;26.00;26.00;21.10;42.80;;;;;;5075423;28;8848;-61
2021/09/09 05:57:25;;;;;;;;;25.00;25.00;21.10;42.60;;;;;;5075394;28;8774;-61
2021/09/09 05:59:51;;;;;;;;;24.00;24.00;21.10;42.80;;;;;;5057837;28;8777;-61
2021/09/09 06:02:19;;;;;;;;;20.67;20.67;21.10;42.80;;;;;;5075645;28;9541;-62
2021/09/09 06:04:47;;;;;;;;;18.00;18.00;21.30;42.90;;;;;;5075441;28;8766;-61
2021/09/09 06:07:13;;;;;;;;;21.00;21.00;21.30;42.90;;;;;;5075325;28;8781;-62
2021/09/09 06:09:40;;;;;;;;;22.33;22.33;21.40;42.70;;;;;;5075158;28;8798;-62
2021/09/09 06:12:07;;;;;;;;;22.33;22.33;21.50;42.70;;;;;;5075393;28;8766;-61
2021/09/09 06:14:33;;;;;;;;;17.67;17.67;21.50;42.70;;;;;;5075420;28;8872;-62
2021/09/09 06:16:59;;;;;;;;;21.67;21.67;21.50;42.50;;;;;;5075056;28;8761;-61
2021/09/09 06:19:25;;;;;;;;;17.33;17.33;21.60;42.80;;;;;;5075354;28;8782;-61
2021/09/09 06:21:51;;;;;;;;;19.67;19.67;21.60;42.50;;;;;;5074948;28;8770;-61
2021/09/09 06:24:17;;;;;;;;;20.33;20.33;21.80;42.50;;;;;;5075038;28;8762;-62
2021/09/09 06:26:43;;;;;;;;;18.33;18.33;21.90;41.70;;;;;;5075234;28;9536;-62
2021/09/09 06:29:09;;;;;;;;;19.00;19.00;22.10;41.60;;;;;;5075079;28;8774;-62
2021/09/09 06:31:35;;;;;;;;;15.67;15.67;22.20;41.60;;;;;;5074845;28;8793;-62
2021/09/09 06:34:00;;;;;;;;;17.33;17.33;22.30;41.50;;;;;;5074234;28;8851;-63
2021/09/09 06:36:26;;;;;;;;;17.33;17.33;22.40;41.30;;;;;;5074712;28;8784;-63
2021/09/09 06:38:52;;;;;;;;;18.00;18.00;22.40;41.00;;;;;;5074913;28;8810;-62
2021/09/09 06:41:18;;;;;;;;;21.67;19.33;22.50;40.90;;;;;;5074959;28;8782;-62
2021/09/09 06:43:44;;;;;;;;;13.67;13.67;22.70;40.70;;;;;;5074468;28;8774;-65
2021/09/09 06:46:10;;;;;;;;;21.67;21.00;22.50;40.20;;;;;;5074836;28;8766;-65
2021/09/09 06:48:35;;;;;;;;;15.33;15.33;22.50;40.10;;;;;;5074299;28;8809;-65
2021/09/09 06:51:01;;;;;;;;;14.67;14.67;22.60;39.60;;;;;;5074306;28;8774;-65
2021/09/09 06:53:28;;;;;;;;;15.33;15.33;22.70;39.90;;;;;;5074557;28;8765;-65
2021/09/09 06:55:54;;;;;;;;;15.00;15.00;23.10;39.50;;;;;;5074128;28;8902;-65
2021/09/09 06:58:20;;;;;;;;;16.67;16.67;23.10;38.90;;;;;;5074499;28;8770;-65
2021/09/09 07:00:46;;;;;;;;;17.00;17.00;23.40;39.00;;;;;;5074732;28;8758;-67
2021/09/09 07:03:12;;;;;;;;;15.33;15.33;23.50;38.20;;;;;;5074472;28;8774;-65
2021/09/09 07:05:38;;;;;;;;;13.67;13.67;23.50;37.80;;;;;;5074149;28;8770;-66
2021/09/09 07:08:04;;;;;;;;;13.00;13.00;23.50;37.70;;;;;;5074266;28;8786;-66
2021/09/09 07:10:30;;;;;;;;;11.67;11.67;23.60;37.50;;;;;;5074415;28;8843;-66
2021/09/09 07:12:56;;;;;;;;;14.00;14.00;23.60;37.30;;;;;;5074274;28;9428;-66
2021/09/09 07:15:21;;;;;;;;;15.33;15.33;23.60;37.10;;;;;;5074510;28;8758;-66
2021/09/09 07:17:47;;;;;;;;;12.67;12.67;23.70;37.10;;;;;;5074540;28;8782;-66
2021/09/09 07:20:13;;;;;;;;;12.33;12.33;23.80;36.80;;;;;;5073824;28;9470;-66
2021/09/09 07:22:40;;;;;;;;;13.00;13.00;23.80;36.90;;;;;;5074520;28;8770;-66
2021/09/09 07:25:06;;;;;;;;;10.00;10.00;24.00;36.90;;;;;;5074371;28;8810;-66
2021/09/09 07:27:32;;;;;;;;;9.00;9.00;24.20;36.40;;;;;;5073923;28;8932;-66
2021/09/09 07:29:58;;;;;;;;;13.33;13.33;24.10;35.70;;;;;;5074444;28;8864;-66
2021/09/09 07:32:24;;;;;;;;;12.33;12.33;24.20;35.40;;;;;;5074223;28;8839;-66
2021/09/09 07:34:50;;;;;;;;;13.33;13.33;24.20;35.10;;;;;;5073275;28;9427;-66
2021/09/09 07:37:17;;;;;;;;;12.00;12.00;24.30;35.40;;;;;;5074087;28;8884;-66
2021/09/09 07:39:42;;;;;;;;;11.00;11.00;24.30;35.10;;;;;;5074387;28;8762;-68
2021/09/09 07:42:08;;;;;;;;;11.00;10.00;24.40;34.60;;;;;;5074075;28;9476;-67
2021/09/09 07:44:34;;;;;;;;;13.67;13.67;24.30;34.70;;;;;;5073891;28;8785;-68
2021/09/09 07:47:01;;;;;;;;;15.00;14.67;24.30;34.60;;;;;;5076805;28;8871;-69
2021/09/09 07:49:28;;;;;;;;;13.33;13.33;24.30;34.80;;;;;;5077369;28;8750;-69
2021/09/09 07:51:55;;;;;;;;;11.33;11.33;24.30;34.50;;;;;;5077782;28;11431;-65
2021/09/09 07:54:21;;;;;;;;;11.67;11.67;24.20;34.50;;;;;;5077813;28;11449;-66
2021/09/09 07:56:49;;;;;;;;;10.33;10.33;24.20;34.90;;;;;;5077676;28;9447;-68
2021/09/09 07:59:16;;;;;;;;;9.33;9.33;24.10;34.60;;;;;;5077831;28;8882;-64
2021/09/09 08:01:45;;;;;;;;;11.00;11.00;24.40;34.30;;;;;;5079290;28;11471;-64
2021/09/09 08:04:16;;;;;;;;;11.33;11.33;24.30;34.10;;;;;;5076942;28;11417;-63
2021/09/09 08:06:43;;;;;;;;;12.67;12.67;24.40;34.30;;;;;;5077779;28;11469;-64
2021/09/09 08:09:10;;;;;;;;;10.33;10.33;24.50;34.40;;;;;;5077662;28;11491;-65
2021/09/09 08:11:36;;;;;;;;;13.00;13.00;24.60;34.20;;;;;;5077393;28;11529;-65
2021/09/09 08:14:03;;;;;;;;;8.67;8.67;24.70;34.30;;;;;;5077412;28;11461;-62
2021/09/09 08:16:28;;;;;;;;;8.00;8.00;24.70;34.20;;;;;;5077380;28;11408;-65
2021/09/09 08:18:54;;;;;;;;;9.33;9.33;24.90;34.10;;;;;;5076969;28;11406;-64
2021/09/09 08:21:20;;;;;;;;;13.33;13.33;25.00;33.50;;;;;;5077237;28;9391;-66
2021/09/09 08:23:47;;;;;;;;;7.33;7.33;25.10;33.90;;;;;;5077376;28;8758;-65
2021/09/09 08:26:13;;;;;;;;;14.33;14.33;25.10;33.30;;;;;;5077284;28;12276;-65
2021/09/09 08:28:39;;;;;;;;;9.00;8.00;25.30;33.80;;;;;;5077179;28;11580;-65
2021/09/09 08:31:05;;;;;;;;;7.00;7.00;25.40;33.60;;;;;;5077101;28;8766;-63
2021/09/09 08:33:32;;;;;;;;;12.00;12.00;25.40;33.30;;;;;;5076668;28;8776;-63
2021/09/09 08:36:02;;;;;;;;;12.00;12.00;25.50;32.90;;;;;;5076706;28;12151;-63
2021/09/09 08:38:28;;;;;;;;;9.00;9.00;25.60;33.40;;;;;;5077157;28;12116;-63
2021/09/09 08:40:54;;;;;;;;;13.00;13.00;25.60;32.80;;;;;;5076847;28;11404;-63
2021/09/09 08:43:20;;;;;;;;;13.00;13.00;25.80;32.90;;;;;;5076959;28;8770;-62
2021/09/09 08:45:49;;;;;;;;;12.00;12.00;25.80;32.20;;;;;;5076773;28;8896;-62
2021/09/09 08:48:17;;;;;;;;;11.00;11.00;25.80;31.80;;;;;;5076275;28;9230;-63
2021/09/09 08:50:43;;;;;;;;;11.00;11.00;25.90;31.70;;;;;;5076967;28;11495;-62
2021/09/09 08:53:09;;;;;;;;;11.33;11.33;26.00;31.60;;;;;;5076946;28;11414;-62
2021/09/09 08:55:35;;;;;;;;;9.75;9.75;26.10;31.60;;;;;;5076355;28;11529;-62
2021/09/09 08:58:02;;;;;;;;;10.00;10.00;26.10;31.10;;;;;;5075444;28;11565;-63
2021/09/09 09:00:28;;;;;;;;;10.67;10.67;26.20;30.80;;;;;;5076467;28;11418;-63
2021/09/09 09:02:56;;;;;;;;;11.67;11.67;26.30;31.40;;;;;;5075805;28;11437;-63
2021/09/09 09:05:24;;;;;;;;;11.67;11.67;26.40;31.60;;;;;;5076510;28;11443;-63
2021/09/09 09:08:02;;;;;;;;;12.67;12.67;26.60;31.30;;;;;;5076633;28;11465;-64
2021/09/09 09:10:28;;;;;;;;;12.67;12.67;26.60;30.00;;;;;;5076347;28;11503;-63
2021/09/09 09:12:54;;;;;;;;;12.00;12.00;26.70;30.50;;;;;;5076207;28;11541;-64
2021/09/09 09:15:24;;;;;;;;;11.67;11.67;26.80;30.80;;;;;;5076218;28;11471;-64
2021/09/09 09:17:53;;;;;;;;;12.00;12.00;26.90;30.00;;;;;;5076111;28;8774;-64
2021/09/09 09:20:19;;;;;;;;;11.00;11.00;26.90;29.80;;;;;;5075393;28;11411;-65
2021/09/09 09:22:45;;;;;;;;;12.50;12.50;27.00;30.00;;;;;;5076109;28;11509;-64
2021/09/09 09:25:11;;;;;;;;;14.00;14.00;27.10;30.10;;;;;;5076343;28;11652;-63
2021/09/09 09:27:48;;;;;;;;;9.25;9.25;27.30;30.00;;;;;;5076266;28;12241;-62
2021/09/09 09:30:14;;;;;;;;;13.00;13.00;27.40;30.00;;;;;;5076057;28;8766;-62
2021/09/09 09:32:48;;;;;;;;;12.50;12.50;27.40;29.70;;;;;;5075530;28;11459;-64
2021/09/09 09:35:20;;;;;;;;;10.50;10.50;27.40;29.90;;;;;;5075860;28;11427;-64
2021/09/09 09:38:12;;;;;;;;;10.25;10.25;27.50;29.80;;;;;;5075718;28;11450;-63
2021/09/09 09:40:46;;;;;;;;;10.50;10.50;27.60;29.90;;;;;;5071914;28;11449;-62
2021/09/09 09:43:12;;;;;;;;;12.50;12.50;27.60;29.60;;;;;;5075595;28;11443;-64
2021/09/09 09:45:49;;;;;;;;;8.50;8.50;27.80;29.80;;;;;;5075826;28;12131;-63
2021/09/09 09:48:33;;;;;;;;;7.25;7.25;27.80;29.20;;;;;;5075415;28;11446;-63
2021/09/09 09:51:02;;;;;;;;;11.00;11.00;27.90;29.10;;;;;;5075888;28;11493;-64
2021/09/09 09:53:29;;;;;;;;;12.00;12.00;27.90;28.90;;;;;;5075478;28;11432;-63
2021/09/09 09:55:55;;;;;;;;;12.00;12.00;28.10;28.80;;;;;;5075245;28;11509;-63
2021/09/09 09:58:21;;;;;;;;;12.50;12.50;28.20;28.40;;;;;;5090368;28;11455;-63
2021/09/09 10:00:47;;;;;;;;;11.00;11.00;28.10;28.10;;;;;;5081096;28;12062;-64
2021/09/09 10:03:14;;;;;;;;;11.75;11.75;28.20;27.90;;;;;;5075453;28;8784;-64
2021/09/09 10:05:40;;;;;;;;;11.25;11.25;28.20;27.90;;;;;;5075254;28;11445;-64
2021/09/09 10:08:08;;;;;;;;;10.00;10.00;28.20;27.60;;;;;;5074997;28;11481;-64
2021/09/09 10:10:34;;;;;;;;;12.00;12.00;28.30;27.80;;;;;;5075380;28;11546;-65
2021/09/09 10:13:00;;;;;;;;;12.00;12.00;28.50;27.70;;;;;;5075356;28;11530;-66
2021/09/09 10:15:27;;;;;;;;;10.00;10.00;29.00;28.00;;;;;;5075116;28;8766;-64
2021/09/09 10:17:54;;;;;;;;;13.75;13.75;29.10;27.40;;;;;;5075083;28;11432;-64
2021/09/09 10:20:42;;;;;;;;;19.00;19.00;29.40;28.20;;;;;;5074957;28;11504;-64
2021/09/09 10:23:14;;;;;;;;;28.00;28.00;29.40;27.80;;;;;;5075030;28;12183;-65
2021/09/09 10:25:46;;;;;;;;;14.00;14.00;29.60;27.80;;;;;;5074892;28;11580;-65
2021/09/09 10:28:41;;;;;;;;;6.25;6.25;29.50;27.10;;;;;;5075113;28;11502;-67
2021/09/09 10:31:18;;;;;;;;;13.00;13.00;29.50;26.90;;;;;;5074868;28;11509;-66
2021/09/09 10:33:53;;;;;;;;;11.00;11.00;29.60;27.30;;;;;;5074962;28;12109;-65
2021/09/09 10:36:43;;;;;;;;;9.75;9.75;29.60;26.80;;;;;;5074925;28;12075;-66
2021/09/09 10:39:36;;;;;;;;;8.25;8.25;29.60;26.70;;;;;;5074713;28;11397;-67
2021/09/09 10:42:36;;;;;;;;;9.00;9.00;29.90;26.90;;;;;;5074882;28;11382;-66
2021/09/09 10:45:03;;;;;;;;;10.75;10.75;30.00;26.40;;;;;;5074528;28;11385;-65
2021/09/09 10:47:29;;;;;;;;;10.00;10.00;30.10;26.00;;;;;;5074290;28;12197;-65
2021/09/09 10:50:03;;;;;;;;;10.00;10.00;30.20;26.00;;;;;;5074120;28;11947;-65
2021/09/09 10:52:29;;;;;;;;;10.00;10.00;30.30;25.80;;;;;;5074461;28;8776;-66
2021/09/09 10:55:10;;;;;;;;;9.75;9.75;30.30;25.50;;;;;;5074156;28;11501;-66
2021/09/09 10:57:36;;;;;;;;;10.00;10.00;30.50;25.30;;;;;;5074390;28;8781;-65
2021/09/09 11:00:05;;;;;;;;;10.00;10.00;30.40;25.20;;;;;;5074526;28;12115;-65
2021/09/09 11:02:32;;;;;;;;;10.00;10.00;30.60;24.90;;;;;;5074421;28;11442;-66
2021/09/09 11:05:06;;;;;;;;;9.00;9.00;30.80;25.00;;;;;;5074314;28;12082;-65
2021/09/09 11:07:32;;;;;;;;;10.00;10.00;30.80;24.50;;;;;;5074393;28;11559;-67
2021/09/09 11:10:07;;;;;;;;;10.75;10.75;31.10;25.30;;;;;;5073847;28;11446;-67
2021/09/09 11:12:41;;;;;;;;;7.00;7.00;31.10;24.50;;;;;;5073937;28;11453;-68
2021/09/09 11:15:09;;;;;;;;;10.25;10.25;31.50;24.80;;;;;;5074281;28;12055;-69
2021/09/09 11:17:36;;;;;;;;;10.00;10.00;31.60;24.20;;;;;;5074235;28;11456;-69
2021/09/09 11:20:08;;;;;;;;;9.75;9.75;31.50;23.80;;;;;;5074092;28;11434;-67
2021/09/09 11:22:35;;;;;;;;;9.25;9.25;31.70;23.90;;;;;;5073955;28;11417;-68
2021/09/09 11:25:03;;;;;;;;;10.25;10.25;31.60;23.30;;;;;;5073992;28;11452;-65
2021/09/09 11:27:35;;;;;;;;;12.00;11.00;31.70;23.50;;;;;;5074163;28;11426;-67
2021/09/09 11:30:02;;;;;;;;;11.00;11.00;31.90;23.30;;;;;;5074311;28;11526;-66
2021/09/09 11:32:30;;;;;;;;;12.75;12.75;32.00;23.30;;;;;;5074008;28;11469;-66
2021/09/09 11:35:10;;;;;;;;;34.67;32.67;32.30;23.30;;;;;;5074220;28;11461;-66
2021/09/09 11:37:46;;;;;;;;;11.75;11.75;32.40;23.20;;;;;;5073991;28;11479;-65
2021/09/09 11:40:14;;;;;;;;;12.00;12.00;32.40;22.80;;;;;;5073741;28;11408;-63
2021/09/09 11:42:41;;;;;;;;;12.00;12.00;32.60;22.90;;;;;;5073878;28;11418;-66
2021/09/09 11:45:08;;;;;;;;;10.25;10.25;32.70;22.60;;;;;;5074124;28;11445;-67
2021/09/09 11:47:34;;;;;;;;;11.75;11.75;33.00;22.50;;;;;;5074062;28;11465;-66
2021/09/09 11:50:02;;;;;;;;;10.50;10.50;33.30;22.20;;;;;;5074203;28;12152;-66
2021/09/09 11:52:28;;;;;;;;;12.25;12.25;33.60;22.00;;;;;;5076152;28;8770;-72
2021/09/09 11:54:54;;;;;;;;;12.00;12.00;33.60;21.90;;;;;;5082475;28;11538;-68
2021/09/09 11:57:19;;;;;;;;;11.00;11.00;33.60;21.50;;;;;;5091533;28;8776;-67
2021/09/09 11:59:57;;;;;;;;;17.00;17.00;33.60;21.60;;;;;;5110300;28;8786;-70
2021/09/09 12:02:32;;;;;;;;;9.25;9.25;33.80;21.40;;;;;;5077332;28;8778;-67
2021/09/09 12:05:01;;;;;;;;;10.00;10.00;33.60;21.00;;;;;;5076131;28;11453;-66
2021/09/09 12:07:32;;;;;;;;;12.75;12.25;33.90;21.10;;;;;;5090851;28;11492;-68
2021/09/09 12:10:00;;;;;;;;;9.75;9.75;34.30;20.80;;;;;;5093672;28;11522;-67
2021/09/09 12:12:30;;;;;;;;;8.00;8.00;34.60;20.70;;;;;;5093719;28;11432;-67
2021/09/09 12:15:12;;;;;;;;;12.50;12.50;34.60;20.50;;;;;;5093998;28;12084;-68
2021/09/09 12:17:41;;;;;;;;;15.75;15.75;34.70;20.70;;;;;;5093993;28;11514;-68
2021/09/09 12:20:24;;;;;;;;;11.75;11.75;34.70;20.40;;;;;;5094080;28;11469;-67
2021/09/09 12:22:52;;;;;;;;;9.75;9.75;34.70;20.50;;;;;;5093956;28;11519;-68
2021/09/09 12:25:27;;;;;;;;;21.25;21.25;34.40;20.20;;;;;;5093801;28;11430;-67
2021/09/09 12:27:57;;;;;;;;;14.25;14.25;34.40;20.20;;;;;;5106249;28;11472;-67
2021/09/09 12:30:28;;;;;;;;;13.25;13.25;34.70;20.50;;;;;;5114079;28;11423;-68
2021/09/09 12:32:54;;;;;;;;;8.75;8.75;36.40;19.60;;;;;;5114953;28;11402;-66
2021/09/09 12:35:24;;;;;;;;;8.75;8.75;35.80;19.10;;;;;;5117900;28;11469;-65
2021/09/09 12:38:08;;;;;;;;;9.50;9.50;35.40;19.40;;;;;;5117998;28;8766;-66